Time;durP1;ratioP1;P1;durP2;ratioP2;P2;SDS_P1;SDS_P2;PMS_P1;PMS_P2;Temp;Humidity;BMP_temperature;BMP_pressure;BME280_temperature;BME280_humidity;BME280_pressure;Samples;Min_cycle;Max_cycle;Signal;HPM_P1;HPM_P2
2022/07/27 00:01:03;;;;;;;4.47;1.80;;;15.70;99.90;;;;;;5085659;28;20203;-85
2022/07/27 00:03:32;;;;;;;4.43;1.83;;;15.70;99.90;;;;;;5092719;28;20212;-83
2022/07/27 00:06:00;;;;;;;6.27;1.90;;;15.60;99.90;;;;;;5099795;28;20203;-84
2022/07/27 00:08:26;;;;;;;5.23;2.10;;;15.60;99.90;;;;;;5090890;28;20191;-84
2022/07/27 00:10:54;;;;;;;5.43;2.57;;;15.50;99.90;;;;;;5101660;28;20207;-85
2022/07/27 00:13:21;;;;;;;6.80;2.10;;;15.50;99.90;;;;;;5105450;28;20260;-84
2022/07/27 00:15:50;;;;;;;5.07;2.13;;;15.50;99.90;;;;;;5110169;28;20209;-84
2022/07/27 00:18:18;;;;;;;6.23;2.20;;;15.50;99.90;;;;;;5100675;28;20225;-84
2022/07/27 00:21:02;;;;;;;3.83;1.70;;;15.60;99.90;;;;;;5078350;28;20236;-86
2022/07/27 00:23:37;;;;;;;3.93;1.80;;;15.50;99.90;;;;;;5115292;28;20193;-85
2022/07/27 00:26:04;;;;;;;4.13;2.20;;;15.60;99.90;;;;;;5099126;28;20227;-84
2022/07/27 00:28:31;;;;;;;5.10;1.70;;;15.60;99.90;;;;;;5092840;28;20196;-84
2022/07/27 00:30:59;;;;;;;5.60;2.30;;;15.70;99.90;;;;;;5099845;28;20195;-83
2022/07/27 00:33:26;;;;;;;3.40;1.70;;;15.70;99.90;;;;;;5108487;28;20234;-84
2022/07/27 00:35:53;;;;;;;5.73;2.27;;;15.80;99.90;;;;;;5107428;28;20195;-84
2022/07/27 00:38:19;;;;;;;5.93;2.00;;;15.80;99.90;;;;;;5080363;28;20211;-84
2022/07/27 00:40:46;;;;;;;5.47;1.93;;;15.90;99.90;;;;;;5087519;28;20245;-83
2022/07/27 00:43:16;;;;;;;4.67;2.10;;;16.00;99.90;;;;;;5088347;28;20211;-84
2022/07/27 00:45:43;;;;;;;4.13;2.03;;;15.90;99.90;;;;;;5082886;28;20555;-85
2022/07/27 00:48:10;;;;;;;5.33;2.10;;;15.90;99.90;;;;;;5090086;28;20219;-83
2022/07/27 00:50:40;;;;;;;6.30;2.00;;;16.00;99.90;;;;;;5092201;28;20290;-86
2022/07/27 00:53:11;;;;;;;4.63;1.83;;;16.00;99.90;;;;;;5087609;28;20235;-83
2022/07/27 00:55:39;;;;;;;2.87;1.57;;;16.10;99.90;;;;;;5082333;28;20203;-83
2022/07/27 00:58:07;;;;;;;3.20;1.70;;;16.00;99.90;;;;;;5084536;28;20203;-85
2022/07/27 01:00:37;;;;;;;4.33;1.67;;;16.00;99.90;;;;;;5083997;28;20203;-83
2022/07/27 01:03:04;;;;;;;4.13;1.70;;;15.90;99.90;;;;;;5089774;28;20204;-83
2022/07/27 01:05:36;;;;;;;5.20;1.70;;;16.00;99.90;;;;;;5079329;28;20227;-83
2022/07/27 01:08:12;;;;;;;4.50;1.57;;;15.80;99.90;;;;;;5078574;28;20207;-85
2022/07/27 01:10:43;;;;;;;4.50;1.70;;;16.00;99.90;;;;;;5086025;28;20280;-83
2022/07/27 01:13:10;;;;;;;4.03;1.40;;;15.90;99.90;;;;;;5089354;28;20218;-85
2022/07/27 01:15:39;;;;;;;4.10;1.67;;;16.00;99.90;;;;;;5083807;28;20672;-85
2022/07/27 01:18:25;;;;;;;2.87;1.50;;;16.00;99.90;;;;;;5083227;28;20304;-85
2022/07/27 01:20:53;;;;;;;2.97;1.50;;;16.00;99.90;;;;;;5087116;28;20199;-86
2022/07/27 01:23:24;;;;;;;5.00;1.57;;;16.00;99.90;;;;;;5082282;28;20249;-85
2022/07/27 01:25:51;;;;;;;3.57;1.40;;;16.10;99.90;;;;;;5080917;28;20211;-84
2022/07/27 01:28:18;;;;;;;5.07;1.60;;;16.10;99.90;;;;;;5084354;28;20203;-85
2022/07/27 01:30:46;;;;;;;3.00;1.50;;;16.20;99.90;;;;;;5076995;28;20192;-83
2022/07/27 01:33:24;;;;;;;2.50;1.50;;;16.20;99.90;;;;;;5083488;28;20706;-83
2022/07/27 01:35:54;;;;;;;2.80;1.30;;;16.10;99.90;;;;;;5080659;28;20208;-86
2022/07/27 01:38:22;;;;;;;4.07;1.40;;;16.20;99.90;;;;;;5077787;28;20201;-85
2022/07/27 01:40:53;;;;;;;3.47;1.60;;;16.20;99.90;;;;;;5083894;28;20208;-84
2022/07/27 01:43:20;;;;;;;3.43;1.40;;;16.20;99.90;;;;;;5086576;28;20219;-85
2022/07/27 01:45:50;;;;;;;4.77;1.13;;;16.20;99.90;;;;;;5081869;28;20305;-84
2022/07/27 01:48:18;;;;;;;2.80;1.40;;;16.20;99.90;;;;;;5080667;28;20312;-84
2022/07/27 01:50:46;;;;;;;5.40;1.30;;;16.20;99.90;;;;;;5083077;28;20204;-84
2022/07/27 01:53:13;;;;;;;2.40;1.20;;;16.20;99.90;;;;;;5071338;28;20235;-85
2022/07/27 01:55:40;;;;;;;6.37;2.10;;;16.30;99.90;;;;;;5083298;28;20567;-84
2022/07/27 01:58:09;;;;;;;4.77;1.40;;;16.20;99.90;;;;;;5082013;28;20204;-83
2022/07/27 02:00:37;;;;;;;3.47;1.30;;;16.20;99.90;;;;;;5082157;28;20223;-85
2022/07/27 02:03:06;;;;;;;3.30;1.10;;;16.20;99.90;;;;;;5087376;28;20220;-84
2022/07/27 02:05:35;;;;;;;3.30;1.20;;;16.20;99.90;;;;;;5080577;28;20267;-85
2022/07/27 02:08:04;;;;;;;3.87;2.10;;;16.20;99.90;;;;;;5089972;28;20221;-84
2022/07/27 02:10:31;;;;;;;2.40;1.20;;;16.20;99.90;;;;;;5099359;28;20211;-85
2022/07/27 02:12:58;;;;;;;4.90;1.40;;;16.30;99.90;;;;;;5084761;28;20225;-83
2022/07/27 02:15:48;;;;;;;3.33;1.87;;;16.30;99.90;;;;;;5086088;28;20203;-84
2022/07/27 02:18:20;;;;;;;3.20;1.57;;;16.40;99.90;;;;;;5086623;28;20215;-84
2022/07/27 02:21:03;;;;;;;3.23;1.37;;;16.30;99.90;;;;;;5088982;28;20207;-84
2022/07/27 02:23:30;;;;;;;5.10;1.40;;;16.40;99.90;;;;;;5085042;28;20754;-84
2022/07/27 02:25:58;;;;;;;4.47;1.30;;;16.30;99.90;;;;;;5083478;28;20704;-84
2022/07/27 02:28:28;;;;;;;2.10;1.40;;;16.30;99.90;;;;;;5083541;28;20657;-84
2022/07/27 02:30:57;;;;;;;3.00;1.30;;;16.30;99.90;;;;;;5090043;28;20306;-84
2022/07/27 02:33:25;;;;;;;2.47;1.20;;;16.30;99.90;;;;;;5085308;28;20323;-84
2022/07/27 02:35:57;;;;;;;1.97;1.20;;;16.40;99.90;;;;;;5080547;28;20204;-85
2022/07/27 02:38:25;;;;;;;3.17;1.20;;;16.40;99.90;;;;;;5081047;28;20208;-84
2022/07/27 02:40:54;;;;;;;8.77;1.40;;;16.30;99.90;;;;;;5082808;28;20204;-84
2022/07/27 02:43:22;;;;;;;2.33;1.30;;;16.40;99.90;;;;;;5090727;28;20199;-85
2022/07/27 02:45:50;;;;;;;2.90;1.10;;;16.40;99.90;;;;;;5083670;28;20208;-83
2022/07/27 02:48:20;;;;;;;4.63;1.43;;;16.40;99.90;;;;;;5088702;28;20233;-83
2022/07/27 02:50:50;;;;;;;3.87;1.40;;;16.40;99.90;;;;;;5086497;28;20207;-85
2022/07/27 02:53:17;;;;;;;2.77;1.33;;;16.40;99.90;;;;;;5092453;28;20215;-85
2022/07/27 02:55:44;;;;;;;4.53;1.50;;;16.40;99.90;;;;;;5098005;28;20386;-84
2022/07/27 02:58:11;;;;;;;5.27;1.77;;;16.30;99.90;;;;;;5081078;28;20229;-84
2022/07/27 03:00:38;;;;;;;4.87;1.00;;;16.40;99.90;;;;;;5079025;28;20200;-84
2022/07/27 03:03:05;;;;;;;4.97;1.10;;;16.30;99.90;;;;;;5089236;28;20230;-84
2022/07/27 03:05:35;;;;;;;3.47;1.30;;;16.30;99.90;;;;;;5080769;28;20228;-84
2022/07/27 03:08:05;;;;;;;2.03;1.07;;;16.30;99.90;;;;;;5085035;28;20669;-85
2022/07/27 03:10:32;;;;;;;5.77;1.33;;;16.30;99.90;;;;;;5085533;28;20196;-84
2022/07/27 03:12:59;;;;;;;4.53;1.20;;;16.30;99.90;;;;;;5080986;28;20203;-86
2022/07/27 03:15:28;;;;;;;3.80;1.23;;;16.20;99.90;;;;;;5090036;28;20218;-85
2022/07/27 03:17:56;;;;;;;4.80;1.47;;;16.30;99.90;;;;;;5085059;28;20715;-85
2022/07/27 03:20:23;;;;;;;4.13;1.13;;;16.20;99.90;;;;;;5084259;28;20201;-84
2022/07/27 03:22:56;;;;;;;4.50;1.30;;;16.30;99.90;;;;;;5085090;28;20196;-86
2022/07/27 03:25:25;;;;;;;5.50;1.47;;;16.20;99.90;;;;;;5084881;28;20211;-83
2022/07/27 03:27:55;;;;;;;5.03;2.03;;;16.20;99.90;;;;;;5087400;28;20206;-84
2022/07/27 03:30:32;;;;;;;3.17;1.10;;;16.20;99.90;;;;;;5084507;28;20223;-83
2022/07/27 03:33:01;;;;;;;2.03;1.10;;;16.30;99.90;;;;;;5085011;28;20237;-83
2022/07/27 03:35:28;;;;;;;2.03;1.10;;;16.20;99.90;;;;;;5083809;28;20685;-84
2022/07/27 03:37:58;;;;;;;3.67;1.40;;;16.30;99.90;;;;;;5084794;28;20656;-86
2022/07/27 03:40:28;;;;;;;2.33;1.17;;;16.30;99.90;;;;;;5081660;28;20243;-83
2022/07/27 03:43:03;;;;;;;3.13;1.23;;;16.30;99.90;;;;;;5080422;28;20299;-83
2022/07/27 03:45:30;;;;;;;2.67;1.10;;;16.30;99.90;;;;;;5079639;28;20279;-84
2022/07/27 03:47:57;;;;;;;1.47;1.10;;;16.30;99.90;;;;;;5081202;28;20212;-85
2022/07/27 03:50:24;;;;;;;4.90;1.70;;;16.20;99.90;;;;;;5085649;28;20196;-84
2022/07/27 03:52:54;;;;;;;6.23;1.60;;;16.20;99.90;;;;;;5081912;28;20234;-85
2022/07/27 03:55:21;;;;;;;3.97;1.47;;;16.00;99.90;;;;;;5077866;28;20224;-84
2022/07/27 03:57:49;;;;;;;6.77;1.90;;;15.90;99.90;;;;;;5083054;28;20951;-84
2022/07/27 04:00:19;;;;;;;3.53;1.70;;;15.70;99.90;;;;;;5079121;28;20300;-84
2022/07/27 04:02:47;;;;;;;3.93;1.40;;;15.70;99.90;;;;;;5088694;28;20315;-83
2022/07/27 04:05:14;;;;;;;2.63;1.70;;;15.50;99.90;;;;;;5080952;28;20232;-83
2022/07/27 04:07:41;;;;;;;1.53;1.37;;;15.50;99.90;;;;;;5074056;28;20702;-84
2022/07/27 04:10:10;;;;;;;2.97;1.53;;;15.40;99.90;;;;;;5081716;28;20208;-84
2022/07/27 04:12:45;;;;;;;9.13;2.33;;;15.30;99.90;;;;;;5082676;28;20206;-86
2022/07/27 04:15:15;;;;;;;3.50;1.70;;;15.30;99.90;;;;;;5079370;28;20227;-83
2022/07/27 04:17:42;;;;;;;5.10;1.97;;;15.30;99.90;;;;;;5080838;28;20212;-83
2022/07/27 04:20:23;;;;;;;3.03;1.50;;;15.40;99.90;;;;;;5070790;28;20215;-84
2022/07/27 04:22:56;;;;;;;7.13;2.43;;;15.40;99.90;;;;;;5082175;28;20267;-84
2022/07/27 04:25:30;;;;;;;7.40;1.67;;;15.30;99.90;;;;;;5081029;28;20208;-86
2022/07/27 04:27:57;;;;;;;4.63;1.70;;;15.30;99.90;;;;;;5077641;28;20573;-84
2022/07/27 04:30:28;;;;;;;7.70;2.93;;;15.30;99.90;;;;;;5079969;28;20203;-84
2022/07/27 04:32:57;;;;;;;2.73;1.63;;;15.30;99.90;;;;;;5077932;28;20222;-85
2022/07/27 04:35:33;;;;;;;6.67;1.80;;;15.30;99.90;;;;;;5083128;28;21106;-84
2022/07/27 04:38:03;;;;;;;3.83;1.80;;;15.30;99.90;;;;;;5076673;28;20214;-87
2022/07/27 04:40:32;;;;;;;5.37;2.17;;;15.40;99.90;;;;;;5081503;28;20196;-84
2022/07/27 04:43:00;;;;;;;3.67;1.83;;;15.40;99.90;;;;;;5085098;28;20200;-86
2022/07/27 04:45:28;;;;;;;8.83;2.10;;;15.50;99.90;;;;;;5081076;28;20289;-86
2022/07/27 04:47:56;;;;;;;4.63;1.93;;;15.50;99.90;;;;;;5082666;28;20612;-84
2022/07/27 04:50:27;;;;;;;4.37;1.80;;;15.60;99.90;;;;;;5089437;28;20231;-83
2022/07/27 04:52:55;;;;;;;6.20;2.33;;;15.70;99.90;;;;;;5074477;28;20688;-85
2022/07/27 04:55:25;;;;;;;4.67;2.10;;;15.70;99.90;;;;;;5088203;28;20229;-85
2022/07/27 04:57:52;;;;;;;3.67;1.93;;;15.70;99.90;;;;;;5086135;28;20219;-84
2022/07/27 05:00:20;;;;;;;5.40;1.93;;;15.70;99.90;;;;;;5078999;28;21085;-85
2022/07/27 05:02:47;;;;;;;3.97;1.67;;;15.70;99.90;;;;;;5076939;28;20218;-83
2022/07/27 05:05:14;;;;;;;5.23;1.80;;;15.70;99.90;;;;;;5086197;28;20231;-86
2022/07/27 05:07:45;;;;;;;5.33;1.80;;;15.80;99.90;;;;;;5084600;28;20222;-83
2022/07/27 05:10:12;;;;;;;4.27;1.93;;;15.80;99.90;;;;;;5086600;28;20215;-83
2022/07/27 05:12:48;;;;;;;3.40;1.97;;;15.80;99.90;;;;;;5084310;28;20218;-85
2022/07/27 05:15:16;;;;;;;7.73;1.90;;;15.80;99.90;;;;;;5078368;28;20267;-84
2022/07/27 05:17:44;;;;;;;3.30;1.80;;;15.90;99.90;;;;;;5076876;28;20846;-84
2022/07/27 05:20:12;;;;;;;5.77;1.73;;;15.90;99.90;;;;;;5078719;28;20203;-86
2022/07/27 05:22:39;;;;;;;6.90;2.87;;;15.90;99.90;;;;;;5085522;28;20204;-87
2022/07/27 05:25:12;;;;;;;2.90;1.90;;;15.90;99.90;;;;;;5084049;28;20963;-86
2022/07/27 05:27:40;;;;;;;6.60;1.80;;;15.90;99.90;;;;;;5072525;28;20268;-85
2022/07/27 05:30:22;;;;;;;8.53;2.13;;;15.90;99.90;;;;;;5096948;28;20259;-84
2022/07/27 05:32:49;;;;;;;5.60;1.70;;;15.90;99.90;;;;;;5104134;28;20222;-87
2022/07/27 05:35:17;;;;;;;5.53;1.93;;;15.90;99.90;;;;;;5085897;28;20323;-84
2022/07/27 05:37:45;;;;;;;3.87;1.70;;;15.90;99.90;;;;;;5092032;28;20215;-84
2022/07/27 05:40:25;;;;;;;3.93;2.10;;;16.00;99.90;;;;;;5092730;28;20234;-85
2022/07/27 05:43:02;;;;;;;2.53;1.80;;;16.00;99.90;;;;;;5087274;28;20676;-84
2022/07/27 05:45:35;;;;;;;3.17;2.00;;;16.10;99.90;;;;;;5083109;28;20208;-85
2022/07/27 05:48:02;;;;;;;5.00;1.60;;;16.20;99.90;;;;;;5082476;28;20265;-84
2022/07/27 05:50:32;;;;;;;2.73;1.77;;;16.20;99.90;;;;;;5079549;28;20203;-85
2022/07/27 05:53:07;;;;;;;4.80;1.53;;;16.30;99.90;;;;;;5084066;28;20229;-84
2022/07/27 05:55:34;;;;;;;5.27;1.97;;;16.40;99.90;;;;;;5082235;28;20288;-84
2022/07/27 05:58:03;;;;;;;3.87;1.70;;;16.50;99.90;;;;;;5086277;28;20204;-84
2022/07/27 06:00:36;;;;;;;4.60;2.07;;;16.70;99.90;;;;;;5080622;28;20200;-82
2022/07/27 06:03:03;;;;;;;4.57;1.35;;;16.90;99.90;;;;;;5083284;28;20219;-84
2022/07/27 06:05:30;;;;;;;5.95;1.80;;;17.20;99.90;;;;;;5083716;28;20262;-86
2022/07/27 06:08:02;;;;;;;2.90;1.02;;;17.40;99.90;;;;;;5093321;28;20291;-85
2022/07/27 06:10:31;;;;;;;8.52;1.55;;;17.80;99.90;;;;;;5084505;28;20204;-85
2022/07/27 06:13:01;;;;;;;4.18;1.33;;;18.30;99.90;;;;;;5079174;28;20303;-84
2022/07/27 06:15:31;;;;;;;2.40;1.17;;;19.20;99.90;;;;;;5078898;28;20235;-85
2022/07/27 06:18:05;;;;;;;3.35;1.35;;;20.20;99.90;;;;;;5078318;28;20228;-85
2022/07/27 06:20:37;;;;;;;3.90;1.20;;;20.70;99.90;;;;;;5084054;28;20570;-86
2022/07/27 06:23:10;;;;;;;4.85;1.48;;;21.10;99.90;;;;;;5079500;28;20344;-83
2022/07/27 06:25:45;;;;;;;4.18;1.60;;;21.60;99.90;;;;;;5080914;28;20208;-83
2022/07/27 06:28:12;;;;;;;5.55;1.27;;;21.90;99.90;;;;;;5078873;28;20309;-84
2022/07/27 06:30:42;;;;;;;3.92;0.80;;;22.20;99.90;;;;;;5088523;28;20319;-85
2022/07/27 06:33:15;;;;;;;5.05;1.10;;;22.40;99.90;;;;;;5082152;28;20680;-85
2022/07/27 06:35:45;;;;;;;3.40;0.90;;;23.00;99.90;;;;;;5084606;28;20238;-84
2022/07/27 06:38:23;;;;;;;4.45;1.35;;;;;;;;;;5079216;28;20697;-83
2022/07/27 06:40:53;;;;;;;3.58;1.35;;;25.00;99.90;;;;;;5084881;28;20222;-84
2022/07/27 06:43:25;;;;;;;3.63;1.10;;;26.00;99.90;;;;;;5082175;28;20207;-84
2022/07/27 06:45:58;;;;;;;2.53;0.88;;;26.50;99.90;;;;;;5080444;28;20261;-85
2022/07/27 06:48:26;;;;;;;4.55;1.00;;;26.20;99.90;;;;;;5093093;28;20211;-88
2022/07/27 06:50:56;;;;;;;3.80;0.93;;;;;;;;;;5088790;28;20200;-84
2022/07/27 06:53:30;;;;;;;3.38;1.10;;;25.30;99.90;;;;;;5091677;28;20284;-86
2022/07/27 06:56:02;;;;;;;1.85;0.90;;;25.00;99.90;;;;;;5091800;28;20231;-85
2022/07/27 06:58:36;;;;;;;6.72;1.20;;;25.30;99.90;;;;;;5086479;28;20251;-88
2022/07/27 07:01:04;;;;;;;4.68;1.30;;;25.90;99.90;;;;;;5089847;28;20291;-88
2022/07/27 07:03:31;;;;;;;2.35;1.35;;;26.50;99.90;;;;;;5080694;28;20207;-85
2022/07/27 07:06:01;;;;;;;2.47;0.90;;;26.70;99.90;;;;;;5086765;28;20235;-85
2022/07/27 07:08:34;;;;;;;2.83;0.90;;;27.00;99.20;;;;;;5087513;28;20204;-85
2022/07/27 07:11:01;;;;;;;3.75;1.05;;;27.20;98.70;;;;;;5095171;28;20223;-84
2022/07/27 07:13:30;;;;;;;5.85;0.80;;;27.70;97.70;;;;;;5098668;28;20425;-84
2022/07/27 07:16:03;;;;;;;7.78;1.20;;;28.00;96.80;;;;;;5105065;28;20227;-85
2022/07/27 07:18:30;;;;;;;1.75;0.90;;;28.30;95.30;;;;;;5102244;28;20231;-83
2022/07/27 07:21:19;;;;;;;3.65;1.25;;;28.40;95.00;;;;;;5095030;28;20706;-85
2022/07/27 07:23:53;;;;;;;5.43;1.10;;;28.70;94.30;;;;;;5099349;28;20204;-86
2022/07/27 07:26:32;;;;;;;4.55;1.00;;;29.00;94.20;;;;;;5091835;28;20196;-85
2022/07/27 07:28:59;;;;;;;3.58;1.00;;;29.30;93.00;;;;;;5090350;28;20204;-86
2022/07/27 07:31:26;;;;;;;4.80;1.40;;;29.60;92.60;;;;;;5086714;28;20911;-84
2022/07/27 07:34:01;;;;;;;5.43;1.38;;;30.00;92.00;;;;;;5097327;28;20314;-86
2022/07/27 07:36:31;;;;;;;2.92;0.98;;;30.20;90.40;;;;;;5104892;28;20203;-88
2022/07/27 07:39:01;;;;;;;4.13;0.88;;;30.10;89.20;;;;;;5093547;28;20191;-87
2022/07/27 07:41:36;;;;;;;4.57;0.90;;;30.20;88.50;;;;;;5096130;28;20264;-86
2022/07/27 07:44:07;;;;;;;2.55;0.88;;;30.20;86.70;;;;;;5093168;28;20195;-88
2022/07/27 07:46:41;;;;;;;3.92;1.02;;;30.10;86.90;;;;;;5087170;28;20214;-88
2022/07/27 07:49:16;;;;;;;3.72;0.90;;;30.20;86.40;;;;;;5086798;28;20195;-88
2022/07/27 07:51:44;;;;;;;2.30;0.95;;;30.00;84.80;;;;;;5085423;28;20913;-87
2022/07/27 07:54:15;;;;;;;5.15;1.55;;;;;;;;;;5086539;28;20741;-86
2022/07/27 07:56:44;;;;;;;4.28;1.05;;;28.70;83.70;;;;;;5083803;28;20220;-87
2022/07/27 07:59:16;;;;;;;4.45;1.27;;;28.00;86.80;;;;;;5087123;28;20201;-86
2022/07/27 08:01:44;;;;;;;3.25;1.13;;;27.80;86.60;;;;;;5084901;28;20266;-86
2022/07/27 08:04:13;;;;;;;3.13;0.98;;;27.70;86.70;;;;;;5087160;28;20768;-89
2022/07/27 08:06:43;;;;;;;3.65;1.20;;;27.70;85.40;;;;;;5081985;28;20567;-86
2022/07/27 08:09:15;;;;;;;4.07;0.90;;;27.50;85.60;;;;;;5083816;28;20216;-87
2022/07/27 08:11:48;;;;;;;2.95;1.20;;;27.40;85.70;;;;;;5082035;28;20576;-89
2022/07/27 08:14:17;;;;;;;3.80;0.90;;;27.30;85.20;;;;;;5077910;28;20736;-88
2022/07/27 08:16:51;;;;;;;2.42;0.90;;;26.90;85.10;;;;;;5086045;28;20664;-89
2022/07/27 08:19:30;;;;;;;2.95;0.90;;;26.60;85.80;;;;;;5082547;28;20212;-90
2022/07/27 08:22:07;;;;;;;4.28;1.15;;;26.70;87.40;;;;;;5086161;28;20215;-87
2022/07/27 08:24:35;;;;;;;3.00;1.08;;;27.10;86.70;;;;;;5078265;28;20835;-89
2022/07/27 08:27:05;;;;;;;2.60;0.90;;;27.40;85.10;;;;;;5082024;28;20204;-88
2022/07/27 08:29:35;;;;;;;6.60;1.30;;;27.30;84.80;;;;;;5091114;28;20249;-88
2022/07/27 08:32:11;;;;;;;4.55;1.00;;;27.30;85.10;;;;;;5086171;28;20434;-88
2022/07/27 08:34:38;;;;;;;6.75;1.40;;;27.50;85.90;;;;;;5091471;28;20227;-87
2022/07/27 08:37:18;;;;;;;4.03;0.98;;;27.80;84.90;;;;;;5087393;28;20199;-89
2022/07/27 08:39:53;;;;;;;2.75;1.08;;;28.20;84.80;;;;;;5085923;28;20204;-86
2022/07/27 08:42:42;;;;;;;3.03;0.93;;;28.50;81.80;;;;;;5086860;28;20200;-87
2022/07/27 08:45:23;;;;;;;4.50;1.40;;;28.20;79.80;;;;;;5082768;28;20222;-88
2022/07/27 08:47:56;;;;;;;3.63;1.15;;;27.40;80.70;;;;;;5079206;28;20235;-90
2022/07/27 08:50:28;;;;;;;3.92;1.17;;;26.70;82.60;;;;;;5090738;28;20248;-89
2022/07/27 08:53:12;;;;;;;4.20;1.10;;;26.00;83.10;;;;;;5082423;28;20205;-88
2022/07/27 08:55:50;;;;;;;3.22;1.00;;;25.30;85.20;;;;;;5091823;28;20232;-89
2022/07/27 08:58:28;;;;;;;4.50;1.05;;;25.10;87.70;;;;;;5086680;28;20203;-90
2022/07/27 09:01:00;;;;;;;2.95;1.45;;;25.60;87.10;;;;;;5082331;28;20265;-91
2022/07/27 09:03:34;;;;;;;3.17;1.00;;;26.20;87.30;;;;;;5089285;28;20344;-88
2022/07/27 09:06:15;;;;;;;3.78;1.08;;;26.80;84.40;;;;;;5049469;28;20616;-87
2022/07/27 09:09:00;;;;;;;3.63;1.00;;;27.10;82.20;;;;;;5068728;28;20203;-89
2022/07/27 09:11:31;;;;;;;4.38;1.17;;;26.70;81.80;;;;;;5057299;28;21113;-89
2022/07/27 09:14:05;;;;;;;2.95;0.90;;;26.10;84.00;;;;;;5058527;28;20303;-88
2022/07/27 09:16:34;;;;;;;3.50;1.20;;;25.80;83.60;;;;;;5067988;28;20282;-89
2022/07/27 09:19:28;;;;;;;4.88;1.10;;;25.90;84.30;;;;;;5069235;28;20669;-90
2022/07/27 09:22:05;;;;;;;4.60;1.20;;;26.30;83.40;;;;;;5071847;28;20212;-88
2022/07/27 09:25:05;;;;;;;3.72;1.08;;;26.60;83.10;;;;;;5056685;28;20291;-87
2022/07/27 09:27:38;;;;;;;3.67;0.88;;;27.30;82.50;;;;;;5073822;28;20193;-89
2022/07/27 09:30:20;;;;;;;4.88;1.25;;;27.50;81.10;;;;;;5068634;28;20208;-89
2022/07/27 09:32:51;;;;;;;3.05;1.02;;;27.10;80.90;;;;;;5060670;28;20217;-91
2022/07/27 09:35:32;;;;;;;3.63;1.15;;;26.50;82.30;;;;;;5072631;28;20235;-88
2022/07/27 09:38:32;;;;;;;2.88;0.95;;;26.10;82.80;;;;;;5076546;28;20208;-90
2022/07/27 09:41:13;;;;;;;5.95;1.42;;;25.60;83.50;;;;;;5076691;28;20711;-92
2022/07/27 09:43:56;;;;;;;4.15;1.00;;;24.90;83.90;;;;;;5046728;28;20227;-89
2022/07/27 09:47:14;;;;;;;4.45;1.30;;;24.60;84.80;;;;;;5061221;28;20211;-88
2022/07/27 09:50:16;;;;;;;3.42;1.45;;;24.20;85.90;;;;;;5061989;28;20227;-90
2022/07/27 09:52:47;;;;;;;5.28;1.20;;;23.80;87.40;;;;;;5064595;28;20220;-89
2022/07/27 09:55:22;;;;;;;3.00;0.98;;;23.80;89.50;;;;;;5055186;28;20255;-90
2022/07/27 09:57:52;;;;;;;2.85;0.80;;;24.20;88.00;;;;;;5057747;28;20959;-89
2022/07/27 10:00:59;;;;;;;3.15;1.13;;;24.30;87.40;;;;;;5055002;28;20209;-89
2022/07/27 10:03:46;;;;;;;3.95;1.40;;;24.30;85.40;;;;;;5062945;28;20290;-86
2022/07/27 10:06:17;;;;;;;2.38;0.90;;;24.00;85.00;;;;;;5054314;28;20212;-88
2022/07/27 10:08:49;;;;;;;3.55;1.08;;;23.80;84.40;;;;;;5058190;28;20642;-88
2022/07/27 10:11:21;;;;;;;3.45;0.90;;;23.70;84.50;;;;;;5068991;28;20228;-85
2022/07/27 10:13:53;;;;;;;4.07;1.00;;;23.40;84.00;;;;;;5051827;28;20320;-87
2022/07/27 10:16:27;;;;;;;2.58;1.08;;;23.30;83.90;;;;;;5050913;28;20247;-88
2022/07/27 10:19:04;;;;;;;3.72;0.95;;;23.30;85.60;;;;;;5063417;28;20591;-85
2022/07/27 10:21:36;;;;;;;3.30;0.98;;;23.30;85.80;;;;;;5053250;28;20296;-86
2022/07/27 10:24:10;;;;;;;3.63;1.00;;;23.20;87.60;;;;;;5052118;28;20205;-88
2022/07/27 10:26:46;;;;;;;3.97;1.00;;;23.50;87.90;;;;;;5051200;28;20209;-86
2022/07/27 10:29:25;;;;;;;3.88;1.00;;;24.00;87.70;;;;;;5062048;28;20210;-88
2022/07/27 10:31:55;;;;;;;2.13;0.90;;;24.40;86.70;;;;;;5076279;28;20205;-85
2022/07/27 10:34:38;;;;;;;3.42;1.30;;;24.70;86.00;;;;;;5075345;28;20251;-86
2022/07/27 10:37:22;;;;;;;2.75;1.30;;;24.90;84.80;;;;;;5070615;28;20243;-86
2022/07/27 10:42:44;;;;;;;4.07;1.20;;;24.50;84.00;;;;;;5071503;28;20206;-85
2022/07/27 10:45:36;;;;;;;2.63;0.90;;;24.20;84.40;;;;;;5065099;28;21012;-86
2022/07/27 10:48:39;;;;;;;2.00;1.10;;;24.10;85.30;;;;;;5057465;28;20260;-86
2022/07/27 10:51:15;;;;;;;3.83;1.10;;;23.80;85.70;;;;;;5059540;28;20810;-84
2022/07/27 10:53:47;;;;;;;1.27;1.00;;;23.70;84.50;;;;;;5058322;28;20203;-85
2022/07/27 10:56:45;;;;;;;2.20;0.90;;;23.60;83.30;;;;;;5061731;28;20236;-85
2022/07/27 10:59:31;;;;;;;2.38;0.80;;;23.50;81.70;;;;;;5067128;28;20287;-85
2022/07/27 11:02:41;;;;;;;2.28;0.80;;;23.40;82.50;;;;;;5053141;28;20236;-85
2022/07/27 11:05:12;;;;;;;2.92;1.25;;;23.40;82.30;;;;;;5073558;28;20282;-85
2022/07/27 11:07:59;;;;;;;2.80;1.00;;;23.50;83.70;;;;;;5080129;28;20216;-85
2022/07/27 11:10:47;;;;;;;4.85;1.30;;;23.80;84.40;;;;;;5079953;28;20199;-87
2022/07/27 11:13:19;;;;;;;2.10;0.82;;;24.10;83.60;;;;;;5086497;28;20211;-88
2022/07/27 11:15:58;;;;;;;4.00;1.42;;;24.50;81.50;;;;;;5082318;28;20224;-84
2022/07/27 11:19:02;;;;;;;2.88;1.00;;;24.70;81.90;;;;;;5079687;28;20212;-85
2022/07/27 11:21:37;;;;;;;2.67;1.00;;;25.30;81.10;;;;;;5078845;28;20234;-85
2022/07/27 11:24:23;;;;;;;7.53;1.45;;;25.60;80.70;;;;;;5085870;28;20207;-86
2022/07/27 11:26:54;;;;;;;4.38;1.02;;;25.70;77.70;;;;;;5083503;28;20631;-85
2022/07/27 11:29:25;;;;;;;2.85;1.13;;;25.50;77.60;;;;;;5082483;28;20212;-86
2022/07/27 11:31:54;;;;;;;2.70;1.00;;;25.10;78.40;;;;;;5076303;28;20623;-87
2022/07/27 11:34:34;;;;;;;2.17;1.10;;;24.90;79.00;;;;;;5080431;28;20291;-85
2022/07/27 11:37:11;;;;;;;1.45;0.95;;;24.90;78.80;;;;;;5102449;28;20291;-87
2022/07/27 11:39:39;;;;;;;3.08;1.13;;;25.10;78.20;;;;;;5104001;28;20215;-85
2022/07/27 11:42:38;;;;;;;3.53;1.10;;;25.30;77.50;;;;;;5091554;28;20226;-85
2022/07/27 11:45:06;;;;;;;1.30;1.02;;;25.70;77.30;;;;;;5091871;28;20228;-84
2022/07/27 11:47:34;;;;;;;1.30;0.80;;;25.90;77.40;;;;;;5079160;28;21101;-85
2022/07/27 11:50:10;;;;;;;2.80;1.25;;;26.00;77.50;;;;;;5079045;28;20220;-87
2022/07/27 11:52:37;;;;;;;4.90;1.20;;;26.30;77.30;;;;;;5082168;28;20207;-85
2022/07/27 11:55:07;;;;;;;3.97;1.25;;;26.40;77.60;;;;;;5086531;28;20246;-86
2022/07/27 11:57:38;;;;;;;4.50;1.30;;;26.30;78.20;;;;;;5086644;28;20591;-87
2022/07/27 12:00:06;;;;;;;2.80;0.95;;;26.10;79.50;;;;;;5085168;28;20231;-86
2022/07/27 12:02:37;;;;;;;5.10;1.27;;;25.70;80.90;;;;;;5104843;27;20280;-84
2022/07/27 12:05:09;;;;;;;1.52;1.17;;;25.30;80.90;;;;;;5075572;28;20235;-85
2022/07/27 12:07:39;;;;;;;2.13;1.42;;;24.90;81.20;;;;;;5078704;28;20204;-86
2022/07/27 12:10:07;;;;;;;4.50;1.33;;;24.60;82.60;;;;;;5083075;28;20226;-87
2022/07/27 12:12:38;;;;;;;2.42;1.10;;;24.30;83.10;;;;;;5085996;28;20253;-85
2022/07/27 12:15:19;;;;;;;3.42;1.30;;;24.10;83.20;;;;;;5079110;28;20214;-86
2022/07/27 12:18:09;;;;;;;4.13;1.10;;;24.10;86.00;;;;;;5083925;28;20216;-86
2022/07/27 12:20:38;;;;;;;2.65;1.20;;;24.50;85.10;;;;;;5081182;28;20695;-86
2022/07/27 12:23:07;;;;;;;3.40;1.42;;;25.00;84.10;;;;;;5077004;28;20210;-87
2022/07/27 12:25:35;;;;;;;4.07;1.38;;;25.30;86.10;;;;;;5079672;28;20683;-86
2022/07/27 12:28:07;;;;;;;4.57;1.10;;;25.20;87.00;;;;;;5084040;28;20207;-86
2022/07/27 12:30:45;;;;;;;3.13;1.30;;;25.10;87.20;;;;;;5082887;28;20207;-86
2022/07/27 12:33:46;;;;;;;3.75;1.20;;;25.00;87.80;;;;;;5087327;28;20302;-86
2022/07/27 12:36:32;;;;;;;3.97;1.30;;;24.70;87.80;;;;;;5086480;28;20232;-86
2022/07/27 12:38:59;;;;;;;1.85;1.13;;;24.50;88.90;;;;;;5086732;28;20640;-86
2022/07/27 12:41:36;;;;;;;2.78;1.13;;;24.40;89.70;;;;;;5087778;28;20280;-85
2022/07/27 12:44:17;;;;;;;4.25;1.35;;;24.10;89.30;;;;;;5087619;28;20444;-85
2022/07/27 12:47:00;;;;;;;2.78;1.30;;;23.90;89.20;;;;;;5085942;28;20196;-86
2022/07/27 12:49:33;;;;;;;3.13;1.20;;;23.90;89.50;;;;;;5070398;28;20208;-86
2022/07/27 12:52:08;;;;;;;3.60;1.35;;;23.90;89.70;;;;;;5081668;28;20258;-86
2022/07/27 12:54:36;;;;;;;5.47;1.40;;;23.90;90.20;;;;;;5085754;28;20734;-86
2022/07/27 12:57:04;;;;;;;5.63;1.52;;;24.00;90.30;;;;;;5084703;28;20231;-84
2022/07/27 12:59:31;;;;;;;3.22;1.10;;;24.10;90.00;;;;;;5086735;28;20268;-83
2022/07/27 13:02:00;;;;;;;4.35;1.17;;;24.20;89.50;;;;;;5083686;28;20207;-83
2022/07/27 13:04:27;;;;;;;4.68;1.30;;;24.30;88.80;;;;;;5073894;28;20263;-84
2022/07/27 13:06:56;;;;;;;3.35;1.23;;;24.40;89.10;;;;;;5077802;28;20298;-84
2022/07/27 13:09:23;;;;;;;4.13;1.30;;;24.50;89.60;;;;;;5083836;28;20231;-83
2022/07/27 13:12:11;;;;;;;4.65;1.10;;;24.50;87.80;;;;;;5077357;28;20211;-84
2022/07/27 13:14:38;;;;;;;3.65;1.17;;;24.60;86.90;;;;;;5086035;28;20200;-83
2022/07/27 13:17:09;;;;;;;3.22;1.00;;;24.50;87.20;;;;;;5080196;28;20236;-85
2022/07/27 13:19:39;;;;;;;3.03;1.10;;;24.50;86.80;;;;;;5078298;28;20212;-85